createdAt,value
2018-07-22T00:00:34.677Z,11.97
2018-07-22T00:03:02.793Z,10.67
2018-07-22T00:05:30.908Z,12.43
2018-07-22T00:07:59.018Z,11.70
2018-07-22T00:10:28.200Z,11.80
2018-07-22T00:12:56.769Z,12.30
2018-07-22T00:15:24.969Z,11.00
2018-07-22T00:17:53.089Z,12.50
2018-07-22T00:20:21.221Z,12.37
2018-07-22T00:22:49.373Z,11.93
2018-07-22T00:25:17.785Z,12.93
2018-07-22T00:27:48.413Z,14.30
2018-07-22T00:30:16.825Z,12.00
2018-07-22T00:32:44.972Z,12.60
2018-07-22T00:35:13.109Z,12.83
2018-07-22T00:37:41.703Z,12.67
2018-07-22T00:40:11.294Z,11.50
2018-07-22T00:42:39.631Z,12.90
2018-07-22T00:45:09.691Z,12.03
2018-07-22T00:47:37.837Z,11.90
2018-07-22T00:50:06.039Z,12.30
2018-07-22T00:52:34.146Z,12.63
2018-07-22T00:55:02.261Z,13.00
2018-07-22T00:57:30.401Z,11.17
2018-07-22T00:59:58.595Z,12.00
2018-07-22T01:02:26.713Z,12.70
2018-07-22T01:04:54.815Z,12.47
2018-07-22T01:07:22.937Z,13.27
2018-07-22T01:09:51.148Z,12.47
2018-07-22T01:12:19.401Z,12.00
2018-07-22T01:14:47.608Z,11.33
2018-07-22T01:17:15.764Z,12.60
2018-07-22T01:19:43.939Z,13.40
2018-07-22T01:22:12.056Z,13.70
2018-07-22T01:24:40.184Z,13.53
2018-07-22T01:27:08.334Z,13.60
2018-07-22T01:29:36.446Z,11.63
2018-07-22T01:32:04.589Z,13.50
2018-07-22T01:34:32.746Z,13.30
2018-07-22T01:37:00.862Z,13.53
2018-07-22T01:39:29.004Z,12.60
2018-07-22T01:41:57.133Z,12.13
2018-07-22T01:44:25.274Z,12.43
2018-07-22T01:46:53.429Z,12.50
2018-07-22T01:49:21.536Z,13.40
2018-07-22T01:51:49.664Z,12.70
2018-07-22T01:54:17.804Z,12.90
2018-07-22T01:56:45.982Z,14.10
2018-07-22T01:59:14.162Z,12.47
2018-07-22T02:01:42.318Z,12.90
2018-07-22T02:04:10.390Z,13.40
2018-07-22T02:06:38.548Z,13.30
2018-07-22T02:09:07.786Z,14.00
2018-07-22T02:11:35.934Z,13.23
2018-07-22T02:14:04.887Z,12.47
2018-07-22T02:16:33.014Z,14.20
2018-07-22T02:19:01.127Z,15.07
2018-07-22T02:21:29.290Z,12.60
2018-07-22T02:23:57.408Z,14.07
2018-07-22T02:26:25.554Z,16.20
2018-07-22T02:28:53.670Z,13.80
2018-07-22T02:31:21.793Z,15.97
2018-07-22T02:33:49.923Z,14.80
2018-07-22T02:36:18.048Z,13.90
2018-07-22T02:38:46.206Z,13.40
2018-07-22T02:41:14.330Z,13.47
2018-07-22T02:43:42.463Z,12.50
2018-07-22T02:46:10.582Z,11.80
2018-07-22T02:48:38.809Z,12.87
2018-07-22T02:51:06.915Z,11.33
2018-07-22T02:53:35.052Z,12.57
2018-07-22T02:56:03.170Z,11.77
2018-07-22T02:58:31.298Z,12.33
2018-07-22T03:00:59.452Z,11.80
2018-07-22T03:03:27.682Z,11.50
2018-07-22T03:05:55.723Z,12.27
2018-07-22T03:08:23.841Z,11.10
2018-07-22T03:10:51.957Z,12.00
2018-07-22T03:13:20.085Z,11.90
2018-07-22T03:15:48.234Z,11.40
2018-07-22T03:18:16.348Z,12.10
2018-07-22T03:20:44.473Z,11.20
2018-07-22T03:23:12.591Z,10.87
2018-07-22T03:25:40.708Z,11.57
2018-07-22T03:28:08.901Z,10.30
2018-07-22T03:30:37.254Z,11.30
2018-07-22T03:33:05.401Z,10.27
2018-07-22T03:35:33.509Z,10.83
2018-07-22T03:38:01.614Z,10.57
2018-07-22T03:40:29.765Z,12.07
2018-07-22T03:42:57.878Z,11.43
2018-07-22T03:45:26.189Z,10.27
2018-07-22T03:47:54.306Z,11.13
2018-07-22T03:50:22.457Z,11.47
2018-07-22T03:52:50.577Z,11.83
2018-07-22T03:55:18.701Z,10.60
2018-07-22T03:57:46.851Z,11.30
2018-07-22T04:00:14.986Z,10.93
2018-07-22T04:02:43.126Z,11.10
2018-07-22T04:05:11.232Z,11.30
2018-07-22T04:07:39.353Z,9.43
2018-07-22T04:10:07.463Z,11.03
2018-07-22T04:12:35.582Z,11.60
2018-07-22T04:15:03.710Z,11.97
2018-07-22T04:17:31.833Z,11.60
2018-07-22T04:19:59.962Z,10.33
2018-07-22T04:22:28.132Z,11.43
2018-07-22T04:24:56.724Z,11.67
2018-07-22T04:27:24.882Z,10.43
2018-07-22T04:29:53.000Z,11.30
2018-07-22T04:32:21.136Z,11.40
2018-07-22T04:34:49.268Z,12.00
2018-07-22T04:37:17.393Z,11.03
2018-07-22T04:39:45.685Z,10.63
2018-07-22T04:42:13.816Z,11.57
2018-07-22T04:44:41.943Z,12.17
2018-07-22T04:47:10.069Z,11.60
2018-07-22T04:49:38.172Z,10.77
2018-07-22T04:52:06.437Z,11.83
2018-07-22T04:54:34.581Z,11.13
2018-07-22T04:57:02.713Z,10.90
2018-07-22T04:59:30.828Z,12.73
2018-07-22T05:01:58.943Z,12.33
2018-07-22T05:04:27.061Z,11.50
2018-07-22T05:06:55.199Z,11.93
2018-07-22T05:09:23.315Z,11.20
2018-07-22T05:11:51.451Z,10.70
2018-07-22T05:14:19.587Z,13.27
2018-07-22T05:16:47.758Z,11.40
2018-07-22T05:19:15.940Z,13.03
2018-07-22T05:21:44.065Z,11.57
2018-07-22T05:24:12.186Z,12.20
2018-07-22T05:26:40.322Z,11.83
2018-07-22T05:29:08.441Z,12.17
2018-07-22T05:31:36.571Z,12.27
2018-07-22T05:34:04.709Z,12.40
2018-07-22T05:36:32.853Z,13.30
2018-07-22T05:39:00.968Z,12.00
2018-07-22T05:41:29.098Z,12.60
2018-07-22T05:43:57.210Z,12.80
2018-07-22T05:46:25.325Z,12.40
2018-07-22T05:48:53.484Z,12.23
2018-07-22T05:51:22.616Z,12.87
2018-07-22T05:53:50.748Z,12.77
2018-07-22T05:56:18.894Z,12.70
2018-07-22T05:58:47.033Z,12.87
2018-07-22T06:01:15.161Z,12.93
2018-07-22T06:03:43.275Z,12.90
2018-07-22T06:06:11.395Z,13.60
2018-07-22T06:08:39.508Z,12.50
2018-07-22T06:11:07.622Z,11.70
2018-07-22T06:13:35.740Z,12.37
2018-07-22T06:16:03.903Z,11.97
2018-07-22T06:18:32.012Z,12.60
2018-07-22T06:21:00.133Z,12.53
2018-07-22T06:23:28.256Z,12.17
2018-07-22T06:25:56.336Z,11.83
2018-07-22T06:28:24.461Z,11.57
2018-07-22T06:30:52.617Z,12.67
2018-07-22T06:33:20.734Z,12.97
2018-07-22T06:35:48.881Z,11.40
2018-07-22T06:38:17.010Z,12.60
2018-07-22T06:40:45.124Z,13.23
2018-07-22T06:43:13.260Z,11.73
2018-07-22T06:45:41.375Z,12.53
2018-07-22T06:48:09.488Z,12.23
2018-07-22T06:50:37.869Z,13.10
2018-07-22T06:53:05.998Z,13.30
2018-07-22T06:55:34.385Z,12.43
2018-07-22T06:58:02.488Z,13.20
2018-07-22T07:00:30.613Z,12.50
2018-07-22T07:02:58.736Z,12.43
2018-07-22T07:05:26.870Z,13.53
2018-07-22T07:07:55.038Z,12.40
2018-07-22T07:10:23.193Z,12.90
2018-07-22T07:12:51.318Z,12.00
2018-07-22T07:15:19.494Z,13.50
2018-07-22T07:17:48.285Z,13.90
2018-07-22T07:20:16.390Z,13.30
2018-07-22T07:22:44.519Z,12.20
2018-07-22T07:25:12.645Z,12.27
2018-07-22T07:27:40.749Z,12.00
2018-07-22T07:30:08.876Z,11.90
2018-07-22T07:32:37.018Z,11.03
2018-07-22T07:35:05.189Z,11.80
2018-07-22T07:37:33.333Z,12.10
2018-07-22T07:40:01.450Z,11.87
2018-07-22T07:42:29.582Z,11.23
2018-07-22T07:44:57.713Z,12.13
2018-07-22T07:47:25.844Z,12.20
2018-07-22T07:49:53.998Z,11.10
2018-07-22T07:52:22.175Z,12.40
2018-07-22T07:54:50.307Z,12.10
2018-07-22T07:57:18.512Z,10.80
2018-07-22T07:59:46.638Z,10.90
2018-07-22T08:02:14.813Z,11.53
2018-07-22T08:04:42.913Z,10.83
2018-07-22T08:07:11.034Z,10.93
2018-07-22T08:09:39.186Z,10.43
2018-07-22T08:12:07.322Z,11.10
2018-07-22T08:14:35.434Z,10.07
2018-07-22T08:17:03.542Z,11.20
2018-07-22T08:19:31.692Z,12.00
2018-07-22T08:21:59.821Z,11.70
2018-07-22T08:24:27.959Z,11.60
2018-07-22T08:26:56.063Z,10.97
2018-07-22T08:29:28.299Z,11.00
2018-07-22T08:31:56.493Z,11.03
2018-07-22T08:34:24.649Z,11.90
2018-07-22T08:36:52.834Z,11.43
2018-07-22T08:39:22.234Z,12.83
2018-07-22T08:41:51.154Z,11.90
2018-07-22T08:44:19.363Z,11.00
2018-07-22T08:46:47.609Z,12.40
2018-07-22T08:49:15.893Z,12.10
2018-07-22T08:51:44.004Z,11.03
2018-07-22T08:54:12.157Z,11.50
2018-07-22T08:56:40.268Z,11.50
2018-07-22T08:59:08.401Z,12.77
2018-07-22T09:01:36.548Z,12.43
2018-07-22T09:04:04.762Z,12.50
2018-07-22T09:06:32.886Z,12.87
2018-07-22T09:09:01.010Z,13.00
2018-07-22T09:11:29.170Z,12.20
2018-07-22T09:13:57.601Z,13.27
2018-07-22T09:16:25.824Z,13.43
2018-07-22T09:18:54.057Z,13.20
2018-07-22T09:21:22.245Z,13.73
2018-07-22T09:23:50.385Z,13.13
2018-07-22T09:26:18.540Z,13.80
2018-07-22T09:28:46.624Z,12.20
2018-07-22T09:31:15.732Z,13.70
2018-07-22T09:33:43.865Z,13.27
2018-07-22T09:36:12.095Z,13.30
2018-07-22T09:38:40.096Z,13.53
2018-07-22T09:41:08.224Z,13.70
2018-07-22T09:43:36.379Z,15.03
2018-07-22T09:46:04.583Z,14.83
2018-07-22T09:48:32.700Z,13.87
2018-07-22T09:51:00.812Z,13.97
2018-07-22T09:53:28.936Z,13.57
2018-07-22T09:55:57.049Z,13.10
2018-07-22T09:58:25.198Z,13.47
2018-07-22T10:00:55.037Z,13.63
2018-07-22T10:03:24.090Z,14.60
2018-07-22T10:05:52.325Z,14.93
2018-07-22T10:08:20.554Z,13.53
2018-07-22T10:10:48.717Z,13.47
2018-07-22T10:13:16.846Z,14.30
2018-07-22T10:15:44.998Z,14.20
2018-07-22T10:18:13.186Z,14.47
2018-07-22T10:20:41.322Z,14.57
2018-07-22T10:23:09.545Z,15.43
2018-07-22T10:25:37.705Z,14.73
2018-07-22T10:28:05.920Z,13.83
2018-07-22T10:30:35.101Z,13.60
2018-07-22T10:33:04.280Z,14.40
2018-07-22T10:35:32.407Z,14.43
2018-07-22T10:38:00.521Z,15.23
2018-07-22T10:40:28.641Z,14.40
2018-07-22T10:42:56.762Z,15.00
2018-07-22T10:45:24.929Z,15.40
2018-07-22T10:47:53.067Z,15.40
2018-07-22T10:50:21.250Z,15.40
2018-07-22T10:52:50.464Z,15.90
2018-07-22T10:55:18.594Z,15.53
2018-07-22T10:57:46.726Z,15.60
2018-07-22T11:00:14.848Z,17.23
2018-07-22T11:02:43.605Z,16.03
2018-07-22T11:05:11.723Z,16.80
2018-07-22T11:07:39.852Z,15.50
2018-07-22T11:10:08.050Z,15.00
2018-07-22T11:12:36.270Z,14.53
2018-07-22T11:15:04.897Z,14.37
2018-07-22T11:17:33.051Z,15.60
2018-07-22T11:20:01.184Z,14.63
2018-07-22T11:22:29.313Z,15.67
2018-07-22T11:24:57.452Z,14.20
2018-07-22T11:27:25.606Z,13.97
2018-07-22T11:29:53.807Z,13.90
2018-07-22T11:32:21.940Z,15.20
2018-07-22T11:34:50.083Z,15.43
2018-07-22T11:37:18.225Z,13.90
2018-07-22T11:39:46.385Z,15.33
2018-07-22T11:42:14.502Z,15.23
2018-07-22T11:44:42.626Z,15.40
2018-07-22T11:47:10.766Z,13.90
2018-07-22T11:49:38.885Z,13.93
2018-07-22T11:52:07.167Z,14.87
2018-07-22T11:54:35.312Z,14.60
2018-07-22T11:57:03.892Z,14.83
2018-07-22T11:59:32.564Z,89.30
2018-07-22T12:02:00.751Z,13.80
2018-07-22T12:04:28.872Z,14.20
2018-07-22T12:06:57.020Z,14.07
2018-07-22T12:09:25.132Z,14.03
2018-07-22T12:11:53.268Z,13.57
2018-07-22T12:14:21.377Z,14.63
2018-07-22T12:16:49.517Z,16.20
2018-07-22T12:19:17.621Z,17.20
2018-07-22T12:21:45.745Z,17.70
2018-07-22T12:24:13.924Z,18.30
2018-07-22T12:26:42.042Z,16.77
2018-07-22T12:29:10.231Z,18.70
2018-07-22T12:31:38.404Z,17.27
2018-07-22T12:34:06.614Z,19.43
2018-07-22T12:36:35.067Z,20.43
2018-07-22T12:39:03.288Z,21.40
2018-07-22T12:41:31.383Z,19.87
2018-07-22T12:43:59.566Z,17.40
2018-07-22T12:46:27.725Z,17.17
2018-07-22T12:48:55.821Z,19.37
2018-07-22T12:51:23.956Z,17.90
2018-07-22T12:53:52.218Z,20.00
2018-07-22T12:56:20.312Z,20.00
2018-07-22T12:58:48.420Z,20.90
2018-07-22T13:01:16.551Z,20.40
2018-07-22T13:03:44.727Z,22.97
2018-07-22T13:06:12.867Z,23.17
2018-07-22T13:08:41.039Z,21.73
2018-07-22T13:11:09.177Z,23.93
2018-07-22T13:13:37.356Z,24.60
2018-07-22T13:16:05.534Z,26.30
2018-07-22T13:18:33.722Z,26.77
2018-07-22T13:21:01.873Z,24.70
2018-07-22T13:23:30.026Z,24.13
2018-07-22T13:25:58.192Z,24.00
2018-07-22T13:28:26.393Z,24.60
2018-07-22T13:30:54.514Z,24.00
2018-07-22T13:33:22.646Z,24.00
2018-07-22T13:35:50.762Z,26.10
2018-07-22T13:38:19.006Z,26.93
2018-07-22T13:40:47.057Z,28.40
2018-07-22T13:43:15.429Z,27.57
2018-07-22T13:45:43.546Z,28.17
2018-07-22T13:48:11.665Z,27.80
2018-07-22T13:50:39.806Z,25.70
2018-07-22T13:53:08.197Z,25.23
2018-07-22T13:55:36.360Z,23.17
2018-07-22T13:58:04.891Z,23.37
2018-07-22T14:00:33.078Z,22.60
2018-07-22T14:03:01.275Z,21.93
2018-07-22T14:05:29.409Z,21.30
2018-07-22T14:07:57.535Z,20.87
2018-07-22T14:10:25.750Z,22.17
2018-07-22T14:12:53.911Z,20.97
2018-07-22T14:15:22.199Z,21.57
2018-07-22T14:17:50.352Z,23.20
2018-07-22T14:20:18.487Z,22.23
2018-07-22T14:22:46.626Z,21.80
2018-07-22T14:25:14.776Z,23.20
2018-07-22T14:27:44.579Z,21.40
2018-07-22T14:30:12.718Z,22.27
2018-07-22T14:32:40.862Z,21.60
2018-07-22T14:35:09.037Z,19.67
2018-07-22T14:37:37.116Z,21.20
2018-07-22T14:40:05.306Z,20.77
2018-07-22T14:42:33.388Z,20.40
2018-07-22T14:45:01.520Z,19.50
2018-07-22T14:47:29.652Z,17.87
2018-07-22T14:49:57.786Z,18.70
2018-07-22T14:52:25.939Z,18.77
2018-07-22T14:54:54.094Z,19.90
2018-07-22T14:57:22.224Z,21.27
2018-07-22T14:59:50.456Z,20.97
2018-07-22T15:02:18.599Z,21.63
2018-07-22T15:04:46.757Z,21.60
2018-07-22T15:07:14.893Z,28.40
2018-07-22T15:09:43.000Z,21.40
2018-07-22T15:12:11.117Z,23.40
2018-07-22T15:14:39.255Z,20.10
2018-07-22T15:17:07.431Z,20.80
2018-07-22T15:19:35.543Z,19.70
2018-07-22T15:22:03.686Z,18.97
2018-07-22T15:24:31.809Z,19.93
2018-07-22T15:26:59.946Z,20.07
2018-07-22T15:29:28.095Z,20.33
2018-07-22T15:31:56.179Z,20.80
2018-07-22T15:34:24.308Z,22.30
2018-07-22T15:36:52.447Z,23.00
2018-07-22T15:39:20.638Z,22.47
2018-07-22T15:41:48.811Z,23.17
2018-07-22T15:44:16.993Z,21.83
2018-07-22T15:46:45.153Z,24.27
2018-07-22T15:49:14.286Z,25.10
2018-07-22T15:51:42.439Z,24.13
2018-07-22T15:54:10.553Z,24.50
2018-07-22T15:56:38.685Z,24.50
2018-07-22T15:59:06.815Z,22.50
2018-07-22T16:01:34.977Z,23.57
2018-07-22T16:04:03.060Z,25.07
2018-07-22T16:06:31.168Z,26.40
2018-07-22T16:08:59.285Z,24.73
2018-07-22T16:11:27.428Z,23.83
2018-07-22T16:13:55.546Z,21.43
2018-07-22T16:16:23.672Z,22.10
2018-07-22T16:18:51.825Z,22.63
2018-07-22T16:21:19.976Z,21.00
2018-07-22T16:23:48.101Z,21.23
2018-07-22T16:26:16.225Z,20.97
2018-07-22T16:28:44.350Z,20.77
2018-07-22T16:31:12.734Z,22.07
2018-07-22T16:33:40.911Z,23.30
2018-07-22T16:36:08.976Z,23.87
2018-07-22T16:38:37.154Z,23.53
2018-07-22T16:41:05.267Z,23.30
2018-07-22T16:43:33.393Z,22.10
2018-07-22T16:46:01.505Z,23.73
2018-07-22T16:48:29.639Z,25.30
2018-07-22T16:50:57.748Z,21.83
2018-07-22T16:53:25.885Z,22.53
2018-07-22T16:55:53.998Z,22.87
2018-07-22T16:58:22.155Z,23.83
2018-07-22T17:00:50.281Z,21.40
2018-07-22T17:03:18.417Z,24.10
2018-07-22T17:05:46.538Z,23.50
2018-07-22T17:08:14.683Z,25.17
2018-07-22T17:10:42.798Z,30.93
2018-07-22T17:13:10.949Z,24.60
2018-07-22T17:15:39.069Z,22.40
2018-07-22T17:18:07.192Z,25.67
2018-07-22T17:20:35.313Z,25.33
2018-07-22T17:23:03.539Z,24.73
2018-07-22T17:25:31.681Z,25.97
2018-07-22T17:27:59.797Z,27.60
2018-07-22T17:30:27.905Z,34.23
2018-07-22T17:32:56.028Z,31.50
2018-07-22T17:35:24.156Z,29.03
2018-07-22T17:37:52.280Z,28.03
2018-07-22T17:40:20.405Z,26.70
2018-07-22T17:42:48.524Z,28.50
2018-07-22T17:45:16.679Z,29.73
2018-07-22T17:47:44.800Z,28.80
2018-07-22T17:50:12.985Z,27.80
2018-07-22T17:52:41.131Z,25.83
2018-07-22T17:55:09.286Z,25.87
2018-07-22T17:57:37.409Z,24.83
2018-07-22T18:00:06.732Z,24.80
2018-07-22T18:02:34.923Z,23.80
2018-07-22T18:05:03.045Z,24.57
2018-07-22T18:07:31.172Z,26.10
2018-07-22T18:09:59.316Z,22.80
2018-07-22T18:12:27.422Z,24.50
2018-07-22T18:14:55.570Z,22.47
2018-07-22T18:17:23.709Z,24.27
2018-07-22T18:19:51.837Z,24.67
2018-07-22T18:22:19.936Z,24.33
2018-07-22T18:24:48.092Z,23.97
2018-07-22T18:27:16.374Z,23.70
2018-07-22T18:29:44.541Z,24.13
2018-07-22T18:32:13.749Z,24.47
2018-07-22T18:34:41.917Z,24.00
2018-07-22T18:37:10.192Z,28.43
2018-07-22T18:39:38.223Z,27.50
2018-07-22T18:42:06.368Z,26.17
2018-07-22T18:44:34.489Z,25.50
2018-07-22T18:47:02.645Z,25.10
2018-07-22T18:49:30.764Z,24.77
2018-07-22T18:51:58.891Z,26.53
2018-07-22T18:54:27.012Z,25.80
2018-07-22T18:56:55.132Z,26.43
2018-07-22T18:59:23.277Z,25.73
2018-07-22T19:01:51.416Z,24.23
2018-07-22T19:04:19.533Z,24.27
2018-07-22T19:06:47.656Z,24.90
2018-07-22T19:09:15.865Z,25.37
2018-07-22T19:11:44.041Z,25.90
2018-07-22T19:14:12.187Z,27.50
2018-07-22T19:16:40.409Z,27.57
2018-07-22T19:19:08.538Z,27.53
2018-07-22T19:21:36.669Z,25.27
2018-07-22T19:24:04.804Z,25.10
2018-07-22T19:26:32.950Z,24.27
2018-07-22T19:29:01.054Z,23.77
2018-07-22T19:31:29.238Z,22.83
2018-07-22T19:33:57.340Z,22.63
2018-07-22T19:36:25.480Z,20.40
2018-07-22T19:38:53.620Z,20.23
2018-07-22T19:41:21.740Z,19.47
2018-07-22T19:43:49.880Z,20.37
2018-07-22T19:46:18.119Z,20.10
2018-07-22T19:48:46.241Z,20.10
2018-07-22T19:51:14.382Z,20.37
2018-07-22T19:53:42.606Z,21.43
2018-07-22T19:56:10.878Z,22.17
2018-07-22T19:58:39.137Z,20.27
2018-07-22T20:01:07.321Z,19.50
2018-07-22T20:03:35.446Z,18.27
2018-07-22T20:06:06.228Z,18.00
2018-07-22T20:08:34.361Z,19.77
2018-07-22T20:11:02.492Z,19.30
2018-07-22T20:13:30.605Z,19.13
2018-07-22T20:15:58.721Z,18.90
2018-07-22T20:18:26.905Z,18.30
2018-07-22T20:20:54.995Z,17.07
2018-07-22T20:23:23.136Z,18.23
2018-07-22T20:25:51.289Z,17.87
2018-07-22T20:28:19.397Z,19.60
2018-07-22T20:30:47.535Z,18.67
2018-07-22T20:33:15.683Z,17.90
2018-07-22T20:35:43.837Z,18.17
2018-07-22T20:38:11.978Z,19.50
2018-07-22T20:40:40.116Z,17.13
2018-07-22T20:43:08.279Z,18.80
2018-07-22T20:45:36.426Z,18.53
2018-07-22T20:48:04.831Z,18.23
2018-07-22T20:50:32.956Z,16.80
2018-07-22T20:53:01.079Z,16.60
2018-07-22T20:55:29.261Z,17.57
2018-07-22T20:57:57.398Z,17.10
2018-07-22T21:00:25.524Z,17.53
2018-07-22T21:02:53.701Z,16.87
2018-07-22T21:05:21.833Z,16.60
2018-07-22T21:07:49.991Z,15.83
2018-07-22T21:10:18.140Z,16.10
2018-07-22T21:12:57.664Z,18.00
2018-07-22T21:15:25.801Z,16.33
2018-07-22T21:17:53.920Z,16.30
2018-07-22T21:20:22.519Z,17.37
2018-07-22T21:22:50.662Z,16.00
2018-07-22T21:25:19.129Z,16.63
2018-07-22T21:27:47.291Z,16.47
2018-07-22T21:30:15.809Z,16.30
2018-07-22T21:32:43.954Z,16.37
2018-07-22T21:35:12.137Z,15.57
2018-07-22T21:37:40.504Z,17.20
2018-07-22T21:40:08.725Z,15.00
2018-07-22T21:42:36.856Z,14.00
2018-07-22T21:45:05.896Z,15.90
2018-07-22T21:47:34.091Z,15.23
2018-07-22T21:50:02.279Z,16.60
2018-07-22T21:52:30.429Z,15.40
2018-07-22T21:54:58.552Z,15.40
2018-07-22T21:57:26.705Z,15.90
2018-07-22T21:59:54.840Z,14.93
2018-07-22T22:02:28.558Z,17.03
2018-07-22T22:04:56.680Z,14.80
2018-07-22T22:07:24.882Z,16.50
2018-07-22T22:09:53.087Z,16.83
2018-07-22T22:12:21.270Z,16.40
2018-07-22T22:14:49.401Z,17.13
2018-07-22T22:17:17.589Z,17.00
2018-07-22T22:19:45.869Z,14.87
2018-07-22T22:22:14.109Z,15.07
2018-07-22T22:24:42.423Z,16.10
2018-07-22T22:27:10.633Z,16.47
2018-07-22T22:29:38.786Z,16.37
2018-07-22T22:32:07.068Z,16.70
2018-07-22T22:34:35.202Z,15.63
2018-07-22T22:37:03.315Z,16.37
2018-07-22T22:39:31.449Z,15.77
2018-07-22T22:41:59.580Z,17.27
2018-07-22T22:44:27.746Z,17.93
2018-07-22T22:46:55.863Z,16.97
2018-07-22T22:49:24.009Z,17.70
2018-07-22T22:51:52.132Z,17.57
2018-07-22T22:54:20.254Z,16.50
2018-07-22T22:56:48.427Z,15.93
2018-07-22T22:59:18.851Z,15.97
2018-07-22T23:01:47.051Z,16.20
2018-07-22T23:04:15.494Z,16.37
2018-07-22T23:06:43.655Z,16.17
2018-07-22T23:09:13.065Z,17.47
2018-07-22T23:11:41.436Z,17.03
2018-07-22T23:14:09.606Z,16.37
2018-07-22T23:16:38.445Z,18.17
2018-07-22T23:19:06.636Z,17.33
2018-07-22T23:21:34.904Z,17.07
2018-07-22T23:24:03.052Z,19.57
2018-07-22T23:26:31.859Z,17.90
2018-07-22T23:29:00.082Z,19.30
2018-07-22T23:31:28.220Z,19.43
2018-07-22T23:33:56.645Z,18.10
2018-07-22T23:36:24.779Z,17.57
2018-07-22T23:38:52.896Z,18.80
2018-07-22T23:41:21.144Z,19.30
2018-07-22T23:43:49.257Z,18.70
2018-07-22T23:46:17.370Z,18.07
2018-07-22T23:48:45.590Z,18.53
2018-07-22T23:51:13.751Z,18.70
2018-07-22T23:53:41.877Z,18.17
2018-07-22T23:56:10.048Z,19.87
2018-07-22T23:58:38.170Z,18.77
